sensor_id;sensor_type;location;lat;lon;timestamp;P1;durP1;ratioP1;P2;durP2;ratioP2
20012;SDS011;10167;42.852;23.042;2022-11-20T00:00:00;0.30;;;0.22;;
20012;SDS011;10167;42.852;23.042;2022-11-20T00:02:32;0.13;;;0.13;;
20012;SDS011;10167;42.852;23.042;2022-11-20T00:05:02;0.08;;;0.08;;
20012;SDS011;10167;42.852;23.042;2022-11-20T00:07:31;1.27;;;0.38;;
20012;SDS011;10167;42.852;23.042;2022-11-20T00:10:00;0.22;;;0.22;;
20012;SDS011;10167;42.852;23.042;2022-11-20T00:12:29;0.20;;;0.20;;
20012;SDS011;10167;42.852;23.042;2022-11-20T00:15:00;0.77;;;0.32;;
20012;SDS011;10167;42.852;23.042;2022-11-20T00:17:32;0.98;;;0.68;;
20012;SDS011;10167;42.852;23.042;2022-11-20T00:20:01;0.10;;;0.10;;
20012;SDS011;10167;42.852;23.042;2022-11-20T00:22:30;0.85;;;0.55;;
20012;SDS011;10167;42.852;23.042;2022-11-20T00:24:59;0.20;;;0.20;;
20012;SDS011;10167;42.852;23.042;2022-11-20T00:27:29;3.72;;;0.75;;
20012;SDS011;10167;42.852;23.042;2022-11-20T00:29:59;0.20;;;0.20;;
20012;SDS011;10167;42.852;23.042;2022-11-20T00:32:29;0.38;;;0.38;;
20012;SDS011;10167;42.852;23.042;2022-11-20T00:34:59;3.50;;;0.77;;
20012;SDS011;10167;42.852;23.042;2022-11-20T00:37:29;0.10;;;0.10;;
20012;SDS011;10167;42.852;23.042;2022-11-20T00:39:58;0.20;;;0.20;;
20012;SDS011;10167;42.852;23.042;2022-11-20T00:42:28;12.73;;;2.10;;
20012;SDS011;10167;42.852;23.042;2022-11-20T00:45:01;0.10;;;0.10;;
20012;SDS011;10167;42.852;23.042;2022-11-20T00:47:30;0.40;;;0.40;;
20012;SDS011;10167;42.852;23.042;2022-11-20T00:49:59;0.10;;;0.10;;
20012;SDS011;10167;42.852;23.042;2022-11-20T00:52:29;0.40;;;0.40;;
20012;SDS011;10167;42.852;23.042;2022-11-20T00:54:58;0.17;;;0.17;;
20012;SDS011;10167;42.852;23.042;2022-11-20T00:57:28;3.97;;;0.45;;
20012;SDS011;10167;42.852;23.042;2022-11-20T00:59:57;0.20;;;0.20;;
20012;SDS011;10167;42.852;23.042;2022-11-20T01:02:30;0.20;;;0.20;;
20012;SDS011;10167;42.852;23.042;2022-11-20T01:04:59;0.52;;;0.40;;
20012;SDS011;10167;42.852;23.042;2022-11-20T01:07:29;3.20;;;1.95;;
20012;SDS011;10167;42.852;23.042;2022-11-20T01:09:58;0.38;;;0.38;;
20012;SDS011;10167;42.852;23.042;2022-11-20T01:12:28;0.75;;;0.32;;
20012;SDS011;10167;42.852;23.042;2022-11-20T01:14:58;0.30;;;0.30;;
20012;SDS011;10167;42.852;23.042;2022-11-20T01:17:29;0.50;;;0.50;;
20012;SDS011;10167;42.852;23.042;2022-11-20T01:20:00;2.28;;;1.52;;
20012;SDS011;10167;42.852;23.042;2022-11-20T01:22:29;0.43;;;0.43;;
20012;SDS011;10167;42.852;23.042;2022-11-20T01:24:59;0.63;;;0.63;;
20012;SDS011;10167;42.852;23.042;2022-11-20T01:27:28;0.13;;;0.13;;
20012;SDS011;10167;42.852;23.042;2022-11-20T01:29:57;1.75;;;0.60;;
20012;SDS011;10167;42.852;23.042;2022-11-20T01:32:29;0.30;;;0.30;;
20012;SDS011;10167;42.852;23.042;2022-11-20T01:34:59;0.50;;;0.50;;
20012;SDS011;10167;42.852;23.042;2022-11-20T01:37:28;0.55;;;0.55;;
20012;SDS011;10167;42.852;23.042;2022-11-20T01:39:57;6.13;;;1.35;;
20012;SDS011;10167;42.852;23.042;2022-11-20T01:42:27;0.60;;;0.55;;
20012;SDS011;10167;42.852;23.042;2022-11-20T01:48:21;0.13;;;0.13;;
20012;SDS011;10167;42.852;23.042;2022-11-20T01:50:53;0.20;;;0.20;;
20012;SDS011;10167;42.852;23.042;2022-11-20T01:53:23;0.20;;;0.20;;
20012;SDS011;10167;42.852;23.042;2022-11-20T01:55:58;0.50;;;0.50;;
20012;SDS011;10167;42.852;23.042;2022-11-20T01:58:30;0.47;;;0.47;;
20012;SDS011;10167;42.852;23.042;2022-11-20T02:01:02;0.50;;;0.50;;
20012;SDS011;10167;42.852;23.042;2022-11-20T02:03:33;0.40;;;0.40;;
20012;SDS011;10167;42.852;23.042;2022-11-20T02:06:05;0.32;;;0.32;;
20012;SDS011;10167;42.852;23.042;2022-11-20T02:08:40;0.57;;;0.57;;
20012;SDS011;10167;42.852;23.042;2022-11-20T02:11:09;0.20;;;0.20;;
20012;SDS011;10167;42.852;23.042;2022-11-20T02:13:40;2.15;;;0.63;;
20012;SDS011;10167;42.852;23.042;2022-11-20T02:16:19;1.27;;;1.17;;
20012;SDS011;10167;42.852;23.042;2022-11-20T02:18:51;0.47;;;0.47;;
20012;SDS011;10167;42.852;23.042;2022-11-20T02:21:29;0.50;;;0.35;;
20012;SDS011;10167;42.852;23.042;2022-11-20T02:24:06;0.75;;;0.60;;
20012;SDS011;10167;42.852;23.042;2022-11-20T02:26:45;0.75;;;0.73;;
20012;SDS011;10167;42.852;23.042;2022-11-20T02:29:19;0.32;;;0.32;;
20012;SDS011;10167;42.852;23.042;2022-11-20T02:31:54;8.40;;;0.50;;
20012;SDS011;10167;42.852;23.042;2022-11-20T02:34:25;0.20;;;0.20;;
20012;SDS011;10167;42.852;23.042;2022-11-20T02:36:54;0.32;;;0.32;;
20012;SDS011;10167;42.852;23.042;2022-11-20T02:39:26;0.20;;;0.20;;
20012;SDS011;10167;42.852;23.042;2022-11-20T02:41:57;0.35;;;0.35;;
20012;SDS011;10167;42.852;23.042;2022-11-20T02:44:26;1.40;;;0.32;;
20012;SDS011;10167;42.852;23.042;2022-11-20T02:46:56;0.28;;;0.28;;
20012;SDS011;10167;42.852;23.042;2022-11-20T02:49:25;0.10;;;0.10;;
20012;SDS011;10167;42.852;23.042;2022-11-20T02:51:55;0.15;;;0.15;;
20012;SDS011;10167;42.852;23.042;2022-11-20T02:54:24;1.60;;;0.52;;
20012;SDS011;10167;42.852;23.042;2022-11-20T02:56:54;1.65;;;0.75;;
20012;SDS011;10167;42.852;23.042;2022-11-20T02:59:23;0.30;;;0.30;;
20012;SDS011;10167;42.852;23.042;2022-11-20T03:01:52;0.35;;;0.35;;
20012;SDS011;10167;42.852;23.042;2022-11-20T03:04:22;1.25;;;0.63;;
20012;SDS011;10167;42.852;23.042;2022-11-20T03:06:51;0.40;;;0.40;;
20012;SDS011;10167;42.852;23.042;2022-11-20T03:09:20;0.32;;;0.32;;
20012;SDS011;10167;42.852;23.042;2022-11-20T03:11:50;0.65;;;0.40;;
20012;SDS011;10167;42.852;23.042;2022-11-20T03:14:20;4.38;;;0.38;;
20012;SDS011;10167;42.852;23.042;2022-11-20T03:16:49;0.20;;;0.20;;
20012;SDS011;10167;42.852;23.042;2022-11-20T03:19:19;1.10;;;0.52;;
20012;SDS011;10167;42.852;23.042;2022-11-20T03:21:48;0.22;;;0.22;;
20012;SDS011;10167;42.852;23.042;2022-11-20T03:24:18;0.57;;;0.47;;
20012;SDS011;10167;42.852;23.042;2022-11-20T03:26:47;0.40;;;0.40;;
20012;SDS011;10167;42.852;23.042;2022-11-20T03:29:16;0.20;;;0.20;;
20012;SDS011;10167;42.852;23.042;2022-11-20T03:31:47;0.40;;;0.40;;
20012;SDS011;10167;42.852;23.042;2022-11-20T03:34:16;0.45;;;0.45;;
20012;SDS011;10167;42.852;23.042;2022-11-20T03:36:45;0.35;;;0.35;;
20012;SDS011;10167;42.852;23.042;2022-11-20T03:39:14;2.47;;;0.70;;
20012;SDS011;10167;42.852;23.042;2022-11-20T03:41:43;1.08;;;0.60;;
20012;SDS011;10167;42.852;23.042;2022-11-20T03:44:12;0.57;;;0.57;;
20012;SDS011;10167;42.852;23.042;2022-11-20T03:46:41;0.30;;;0.30;;
20012;SDS011;10167;42.852;23.042;2022-11-20T03:49:12;11.73;;;6.28;;
20012;SDS011;10167;42.852;23.042;2022-11-20T03:51:42;20.58;;;10.38;;
20012;SDS011;10167;42.852;23.042;2022-11-20T03:54:11;8.65;;;5.32;;
20012;SDS011;10167;42.852;23.042;2022-11-20T03:56:40;0.50;;;0.50;;
20012;SDS011;10167;42.852;23.042;2022-11-20T03:59:09;0.05;;;0.05;;
20012;SDS011;10167;42.852;23.042;2022-11-20T04:01:39;0.25;;;0.25;;
20012;SDS011;10167;42.852;23.042;2022-11-20T04:04:16;0.20;;;0.20;;
20012;SDS011;10167;42.852;23.042;2022-11-20T04:06:45;4.10;;;0.60;;
20012;SDS011;10167;42.852;23.042;2022-11-20T04:09:14;0.25;;;0.25;;
20012;SDS011;10167;42.852;23.042;2022-11-20T04:11:44;0.95;;;0.20;;
20012;SDS011;10167;42.852;23.042;2022-11-20T04:14:14;0.28;;;0.28;;
20012;SDS011;10167;42.852;23.042;2022-11-20T04:16:43;0.10;;;0.10;;
20012;SDS011;10167;42.852;23.042;2022-11-20T04:19:13;0.65;;;0.65;;
20012;SDS011;10167;42.852;23.042;2022-11-20T04:21:45;0.20;;;0.20;;
20012;SDS011;10167;42.852;23.042;2022-11-20T04:24:14;0.10;;;0.10;;
20012;SDS011;10167;42.852;23.042;2022-11-20T04:26:43;0.40;;;0.40;;
20012;SDS011;10167;42.852;23.042;2022-11-20T04:29:12;0.63;;;0.63;;
20012;SDS011;10167;42.852;23.042;2022-11-20T04:31:41;0.10;;;0.10;;
20012;SDS011;10167;42.852;23.042;2022-11-20T04:34:11;0.43;;;0.43;;
20012;SDS011;10167;42.852;23.042;2022-11-20T04:36:40;0.17;;;0.17;;
20012;SDS011;10167;42.852;23.042;2022-11-20T04:39:14;0.28;;;0.28;;
20012;SDS011;10167;42.852;23.042;2022-11-20T04:41:44;0.55;;;0.50;;
20012;SDS011;10167;42.852;23.042;2022-11-20T04:44:13;0.20;;;0.20;;
20012;SDS011;10167;42.852;23.042;2022-11-20T04:46:42;0.57;;;0.32;;
20012;SDS011;10167;42.852;23.042;2022-11-20T04:49:11;0.20;;;0.20;;
20012;SDS011;10167;42.852;23.042;2022-11-20T04:51:41;1.20;;;1.05;;
20012;SDS011;10167;42.852;23.042;2022-11-20T04:54:10;2.30;;;1.15;;
20012;SDS011;10167;42.852;23.042;2022-11-20T04:56:41;0.95;;;0.47;;
20012;SDS011;10167;42.852;23.042;2022-11-20T04:59:10;0.60;;;0.60;;
20012;SDS011;10167;42.852;23.042;2022-11-20T05:01:39;0.93;;;0.68;;
20012;SDS011;10167;42.852;23.042;2022-11-20T05:04:09;1.77;;;0.90;;
20012;SDS011;10167;42.852;23.042;2022-11-20T05:06:38;1.70;;;0.57;;
20012;SDS011;10167;42.852;23.042;2022-11-20T05:09:07;0.45;;;0.45;;
20012;SDS011;10167;42.852;23.042;2022-11-20T05:11:36;6.43;;;1.52;;
20012;SDS011;10167;42.852;23.042;2022-11-20T05:14:07;0.63;;;0.63;;
20012;SDS011;10167;42.852;23.042;2022-11-20T05:16:36;0.60;;;0.60;;
20012;SDS011;10167;42.852;23.042;2022-11-20T05:19:05;0.65;;;0.63;;
20012;SDS011;10167;42.852;23.042;2022-11-20T05:21:34;0.20;;;0.20;;
20012;SDS011;10167;42.852;23.042;2022-11-20T05:24:03;0.82;;;0.82;;
20012;SDS011;10167;42.852;23.042;2022-11-20T05:26:34;0.95;;;0.57;;
20012;SDS011;10167;42.852;23.042;2022-11-20T05:29:03;1.00;;;0.65;;
20012;SDS011;10167;42.852;23.042;2022-11-20T05:31:34;0.10;;;0.10;;
20012;SDS011;10167;42.852;23.042;2022-11-20T05:34:04;0.00;;;0.00;;
20012;SDS011;10167;42.852;23.042;2022-11-20T05:36:33;1.13;;;0.55;;
20012;SDS011;10167;42.852;23.042;2022-11-20T05:39:02;24.65;;;2.75;;
20012;SDS011;10167;42.852;23.042;2022-11-20T05:41:32;1.20;;;0.63;;
20012;SDS011;10167;42.852;23.042;2022-11-20T05:44:01;5.72;;;3.28;;
20012;SDS011;10167;42.852;23.042;2022-11-20T05:46:30;0.30;;;0.30;;
20012;SDS011;10167;42.852;23.042;2022-11-20T05:49:01;0.40;;;0.40;;
20012;SDS011;10167;42.852;23.042;2022-11-20T05:51:30;0.40;;;0.40;;
20012;SDS011;10167;42.852;23.042;2022-11-20T05:53:59;0.55;;;0.38;;
20012;SDS011;10167;42.852;23.042;2022-11-20T05:56:28;2.40;;;0.60;;
20012;SDS011;10167;42.852;23.042;2022-11-20T05:58:58;0.52;;;0.52;;
20012;SDS011;10167;42.852;23.042;2022-11-20T06:01:27;0.40;;;0.40;;
20012;SDS011;10167;42.852;23.042;2022-11-20T06:03:56;1.10;;;0.60;;
20012;SDS011;10167;42.852;23.042;2022-11-20T06:06:26;0.10;;;0.10;;
20012;SDS011;10167;42.852;23.042;2022-11-20T06:08:56;0.20;;;0.20;;
20012;SDS011;10167;42.852;23.042;2022-11-20T06:11:26;3.30;;;1.23;;
20012;SDS011;10167;42.852;23.042;2022-11-20T06:13:55;0.93;;;0.85;;
20012;SDS011;10167;42.852;23.042;2022-11-20T06:16:24;0.68;;;0.40;;
20012;SDS011;10167;42.852;23.042;2022-11-20T06:18:56;0.55;;;0.55;;
20012;SDS011;10167;42.852;23.042;2022-11-20T06:21:27;1.15;;;0.68;;
20012;SDS011;10167;42.852;23.042;2022-11-20T06:23:56;0.55;;;0.55;;
20012;SDS011;10167;42.852;23.042;2022-11-20T06:26:26;0.30;;;0.30;;
20012;SDS011;10167;42.852;23.042;2022-11-20T06:28:55;0.47;;;0.47;;
20012;SDS011;10167;42.852;23.042;2022-11-20T06:31:26;0.32;;;0.32;;
20012;SDS011;10167;42.852;23.042;2022-11-20T06:33:55;0.63;;;0.45;;
20012;SDS011;10167;42.852;23.042;2022-11-20T06:36:24;0.70;;;0.28;;
20012;SDS011;10167;42.852;23.042;2022-11-20T06:38:55;0.13;;;0.13;;
20012;SDS011;10167;42.852;23.042;2022-11-20T06:41:24;0.63;;;0.30;;
20012;SDS011;10167;42.852;23.042;2022-11-20T06:43:54;0.20;;;0.20;;
20012;SDS011;10167;42.852;23.042;2022-11-20T06:46:24;4.72;;;1.25;;
20012;SDS011;10167;42.852;23.042;2022-11-20T06:48:53;0.22;;;0.22;;
20012;SDS011;10167;42.852;23.042;2022-11-20T06:51:23;0.40;;;0.40;;
20012;SDS011;10167;42.852;23.042;2022-11-20T06:53:52;1.52;;;0.98;;
20012;SDS011;10167;42.852;23.042;2022-11-20T06:56:24;5.63;;;1.40;;
20012;SDS011;10167;42.852;23.042;2022-11-20T06:58:53;0.55;;;0.47;;
20012;SDS011;10167;42.852;23.042;2022-11-20T07:01:43;4.70;;;0.95;;
20012;SDS011;10167;42.852;23.042;2022-11-20T07:04:12;8.23;;;0.25;;
20012;SDS011;10167;42.852;23.042;2022-11-20T07:06:42;1.40;;;0.55;;
20012;SDS011;10167;42.852;23.042;2022-11-20T07:09:13;1.70;;;0.75;;
20012;SDS011;10167;42.852;23.042;2022-11-20T07:11:42;8.55;;;0.73;;
20012;SDS011;10167;42.852;23.042;2022-11-20T07:14:11;2.58;;;1.85;;
20012;SDS011;10167;42.852;23.042;2022-11-20T07:16:40;2.05;;;1.45;;
20012;SDS011;10167;42.852;23.042;2022-11-20T07:19:09;0.98;;;0.70;;
20012;SDS011;10167;42.852;23.042;2022-11-20T07:21:39;1.73;;;1.15;;
20012;SDS011;10167;42.852;23.042;2022-11-20T07:24:09;1.75;;;0.57;;
20012;SDS011;10167;42.852;23.042;2022-11-20T07:26:39;0.80;;;0.63;;
20012;SDS011;10167;42.852;23.042;2022-11-20T07:29:08;0.98;;;0.82;;
20012;SDS011;10167;42.852;23.042;2022-11-20T07:31:38;3.95;;;1.70;;
20012;SDS011;10167;42.852;23.042;2022-11-20T07:34:07;1.20;;;1.08;;
20012;SDS011;10167;42.852;23.042;2022-11-20T07:36:36;4.53;;;1.88;;
20012;SDS011;10167;42.852;23.042;2022-11-20T07:39:06;5.00;;;1.10;;
20012;SDS011;10167;42.852;23.042;2022-11-20T07:41:36;1.08;;;1.00;;
20012;SDS011;10167;42.852;23.042;2022-11-20T07:44:06;4.95;;;3.30;;
20012;SDS011;10167;42.852;23.042;2022-11-20T07:46:36;3.10;;;1.92;;
20012;SDS011;10167;42.852;23.042;2022-11-20T07:49:05;10.80;;;7.82;;
20012;SDS011;10167;42.852;23.042;2022-11-20T07:51:34;2.80;;;2.60;;
20012;SDS011;10167;42.852;23.042;2022-11-20T07:54:09;1.35;;;1.25;;
20012;SDS011;10167;42.852;23.042;2022-11-20T07:56:38;17.40;;;10.65;;
20012;SDS011;10167;42.852;23.042;2022-11-20T07:59:10;14.52;;;8.60;;
20012;SDS011;10167;42.852;23.042;2022-11-20T08:01:40;6.82;;;2.05;;
20012;SDS011;10167;42.852;23.042;2022-11-20T08:04:09;2.70;;;1.48;;
20012;SDS011;10167;42.852;23.042;2022-11-20T08:06:38;2.13;;;1.50;;
20012;SDS011;10167;42.852;23.042;2022-11-20T08:09:07;7.93;;;5.47;;
20012;SDS011;10167;42.852;23.042;2022-11-20T08:11:37;1.08;;;1.05;;
20012;SDS011;10167;42.852;23.042;2022-11-20T08:14:24;0.63;;;0.63;;
20012;SDS011;10167;42.852;23.042;2022-11-20T08:16:55;2.13;;;0.90;;
20012;SDS011;10167;42.852;23.042;2022-11-20T08:19:25;2.25;;;1.85;;
20012;SDS011;10167;42.852;23.042;2022-11-20T08:21:54;0.55;;;0.52;;
20012;SDS011;10167;42.852;23.042;2022-11-20T08:24:24;6.60;;;4.18;;
20012;SDS011;10167;42.852;23.042;2022-11-20T08:26:53;0.77;;;0.70;;
20012;SDS011;10167;42.852;23.042;2022-11-20T08:29:27;1.27;;;1.17;;
20012;SDS011;10167;42.852;23.042;2022-11-20T08:31:56;6.07;;;2.00;;
20012;SDS011;10167;42.852;23.042;2022-11-20T08:34:28;1.05;;;0.95;;
20012;SDS011;10167;42.852;23.042;2022-11-20T08:36:57;1.83;;;1.50;;
20012;SDS011;10167;42.852;23.042;2022-11-20T08:39:26;4.10;;;2.65;;
20012;SDS011;10167;42.852;23.042;2022-11-20T08:41:55;17.25;;;7.72;;
20012;SDS011;10167;42.852;23.042;2022-11-20T08:44:26;2.35;;;2.05;;
20012;SDS011;10167;42.852;23.042;2022-11-20T08:46:55;0.28;;;0.28;;
20012;SDS011;10167;42.852;23.042;2022-11-20T08:49:25;1.83;;;1.60;;
20012;SDS011;10167;42.852;23.042;2022-11-20T08:51:54;1.20;;;1.15;;
20012;SDS011;10167;42.852;23.042;2022-11-20T08:54:24;2.88;;;2.00;;
20012;SDS011;10167;42.852;23.042;2022-11-20T08:56:53;3.13;;;2.17;;
20012;SDS011;10167;42.852;23.042;2022-11-20T08:59:22;3.45;;;1.73;;
20012;SDS011;10167;42.852;23.042;2022-11-20T09:02:13;3.78;;;0.93;;
20012;SDS011;10167;42.852;23.042;2022-11-20T09:04:42;12.43;;;2.30;;
20012;SDS011;10167;42.852;23.042;2022-11-20T09:07:11;1.52;;;1.20;;
20012;SDS011;10167;42.852;23.042;2022-11-20T09:09:41;2.78;;;2.10;;
20012;SDS011;10167;42.852;23.042;2022-11-20T09:12:12;1.35;;;1.25;;
20012;SDS011;10167;42.852;23.042;2022-11-20T09:14:41;3.65;;;2.72;;
20012;SDS011;10167;42.852;23.042;2022-11-20T09:17:10;3.30;;;2.50;;
20012;SDS011;10167;42.852;23.042;2022-11-20T09:19:43;1.35;;;1.25;;
20012;SDS011;10167;42.852;23.042;2022-11-20T09:22:13;1.17;;;1.13;;
20012;SDS011;10167;42.852;23.042;2022-11-20T09:24:42;4.85;;;2.05;;
20012;SDS011;10167;42.852;23.042;2022-11-20T09:27:11;2.92;;;1.83;;
20012;SDS011;10167;42.852;23.042;2022-11-20T09:29:42;6.43;;;3.47;;
20012;SDS011;10167;42.852;23.042;2022-11-20T09:32:11;9.63;;;4.47;;
20012;SDS011;10167;42.852;23.042;2022-11-20T09:34:40;5.35;;;3.83;;
20012;SDS011;10167;42.852;23.042;2022-11-20T09:37:10;6.97;;;3.47;;
20012;SDS011;10167;42.852;23.042;2022-11-20T09:39:40;2.40;;;1.80;;
20012;SDS011;10167;42.852;23.042;2022-11-20T09:42:13;1.02;;;1.02;;
20012;SDS011;10167;42.852;23.042;2022-11-20T09:44:55;1.95;;;1.23;;
20012;SDS011;10167;42.852;23.042;2022-11-20T09:47:36;0.45;;;0.45;;
20012;SDS011;10167;42.852;23.042;2022-11-20T09:50:21;0.38;;;0.38;;
20012;SDS011;10167;42.852;23.042;2022-11-20T09:53:02;0.63;;;0.52;;
20012;SDS011;10167;42.852;23.042;2022-11-20T09:55:39;0.40;;;0.40;;
20012;SDS011;10167;42.852;23.042;2022-11-20T09:58:13;1.65;;;0.88;;
20012;SDS011;10167;42.852;23.042;2022-11-20T10:00:51;0.40;;;0.40;;
20012;SDS011;10167;42.852;23.042;2022-11-20T10:03:26;0.40;;;0.40;;
20012;SDS011;10167;42.852;23.042;2022-11-20T10:06:07;0.20;;;0.20;;
20012;SDS011;10167;42.852;23.042;2022-11-20T10:08:45;5.28;;;1.58;;
20012;SDS011;10167;42.852;23.042;2022-11-20T10:11:26;0.30;;;0.30;;
20012;SDS011;10167;42.852;23.042;2022-11-20T10:14:02;0.22;;;0.22;;
20012;SDS011;10167;42.852;23.042;2022-11-20T10:16:46;1.17;;;1.08;;
20012;SDS011;10167;42.852;23.042;2022-11-20T10:19:30;1.00;;;1.00;;
20012;SDS011;10167;42.852;23.042;2022-11-20T10:22:15;0.77;;;0.77;;
20012;SDS011;10167;42.852;23.042;2022-11-20T10:24:56;8.05;;;2.25;;
20012;SDS011;10167;42.852;23.042;2022-11-20T10:27:41;0.57;;;0.57;;
20012;SDS011;10167;42.852;23.042;2022-11-20T10:30:27;0.22;;;0.22;;
20012;SDS011;10167;42.852;23.042;2022-11-20T10:32:58;2.50;;;1.05;;
20012;SDS011;10167;42.852;23.042;2022-11-20T10:35:34;2.67;;;1.67;;
20012;SDS011;10167;42.852;23.042;2022-11-20T10:38:09;0.65;;;0.57;;
20012;SDS011;10167;42.852;23.042;2022-11-20T10:40:46;1.08;;;0.88;;
20012;SDS011;10167;42.852;23.042;2022-11-20T10:43:21;1.63;;;1.45;;
20012;SDS011;10167;42.852;23.042;2022-11-20T10:45:56;0.63;;;0.60;;
20012;SDS011;10167;42.852;23.042;2022-11-20T10:48:31;0.77;;;0.65;;
20012;SDS011;10167;42.852;23.042;2022-11-20T10:51:10;1.40;;;0.85;;
20012;SDS011;10167;42.852;23.042;2022-11-20T10:53:53;0.52;;;0.52;;
20012;SDS011;10167;42.852;23.042;2022-11-20T10:56:30;0.77;;;0.60;;
20012;SDS011;10167;42.852;23.042;2022-11-20T11:02:17;0.65;;;0.65;;
20012;SDS011;10167;42.852;23.042;2022-11-20T11:04:49;0.50;;;0.50;;
20012;SDS011;10167;42.852;23.042;2022-11-20T11:07:21;2.22;;;0.68;;
20012;SDS011;10167;42.852;23.042;2022-11-20T11:12:25;0.75;;;0.73;;
20012;SDS011;10167;42.852;23.042;2022-11-20T11:14:56;1.27;;;0.95;;
20012;SDS011;10167;42.852;23.042;2022-11-20T11:17:27;0.10;;;0.10;;
20012;SDS011;10167;42.852;23.042;2022-11-20T11:20:01;0.32;;;0.30;;
20012;SDS011;10167;42.852;23.042;2022-11-20T11:22:33;2.33;;;1.20;;
20012;SDS011;10167;42.852;23.042;2022-11-20T11:25:07;0.30;;;0.30;;
20012;SDS011;10167;42.852;23.042;2022-11-20T11:27:50;0.25;;;0.25;;
20012;SDS011;10167;42.852;23.042;2022-11-20T11:30:27;0.10;;;0.10;;
20012;SDS011;10167;42.852;23.042;2022-11-20T11:33:03;0.10;;;0.10;;
20012;SDS011;10167;42.852;23.042;2022-11-20T11:35:38;5.88;;;0.57;;
20012;SDS011;10167;42.852;23.042;2022-11-20T11:40:49;0.10;;;0.10;;
20012;SDS011;10167;42.852;23.042;2022-11-20T11:43:25;0.30;;;0.30;;
20012;SDS011;10167;42.852;23.042;2022-11-20T11:46:25;0.22;;;0.22;;
20012;SDS011;10167;42.852;23.042;2022-11-20T11:48:57;0.10;;;0.10;;
20012;SDS011;10167;42.852;23.042;2022-11-20T11:51:30;0.38;;;0.38;;
20012;SDS011;10167;42.852;23.042;2022-11-20T11:54:14;1.58;;;0.75;;
20012;SDS011;10167;42.852;23.042;2022-11-20T11:56:50;0.22;;;0.20;;
20012;SDS011;10167;42.852;23.042;2022-11-20T11:59:24;0.10;;;0.10;;
20012;SDS011;10167;42.852;23.042;2022-11-20T12:01:57;0.40;;;0.40;;
20012;SDS011;10167;42.852;23.042;2022-11-20T12:04:37;0.30;;;0.30;;
20012;SDS011;10167;42.852;23.042;2022-11-20T12:07:13;0.20;;;0.20;;
20012;SDS011;10167;42.852;23.042;2022-11-20T12:10:14;0.15;;;0.15;;
20012;SDS011;10167;42.852;23.042;2022-11-20T12:12:48;0.00;;;0.00;;
20012;SDS011;10167;42.852;23.042;2022-11-20T12:15:29;3.08;;;1.48;;
20012;SDS011;10167;42.852;23.042;2022-11-20T12:18:00;1.98;;;0.50;;
20012;SDS011;10167;42.852;23.042;2022-11-20T12:20:31;0.77;;;0.77;;
20012;SDS011;10167;42.852;23.042;2022-11-20T12:23:05;0.50;;;0.50;;
20012;SDS011;10167;42.852;23.042;2022-11-20T12:25:47;3.53;;;1.23;;
20012;SDS011;10167;42.852;23.042;2022-11-20T12:28:27;0.93;;;0.85;;
20012;SDS011;10167;42.852;23.042;2022-11-20T12:31:18;1.25;;;0.90;;
20012;SDS011;10167;42.852;23.042;2022-11-20T12:34:09;5.28;;;1.23;;
20012;SDS011;10167;42.852;23.042;2022-11-20T12:36:53;1.25;;;1.10;;
20012;SDS011;10167;42.852;23.042;2022-11-20T12:39:32;0.75;;;0.50;;
20012;SDS011;10167;42.852;23.042;2022-11-20T12:42:24;0.22;;;0.22;;
20012;SDS011;10167;42.852;23.042;2022-11-20T12:45:29;0.68;;;0.68;;
20012;SDS011;10167;42.852;23.042;2022-11-20T12:51:31;0.68;;;0.68;;
20012;SDS011;10167;42.852;23.042;2022-11-20T12:54:24;0.50;;;0.50;;
20012;SDS011;10167;42.852;23.042;2022-11-20T12:57:07;0.40;;;0.40;;
20012;SDS011;10167;42.852;23.042;2022-11-20T12:59:48;0.30;;;0.30;;
20012;SDS011;10167;42.852;23.042;2022-11-20T13:02:33;0.30;;;0.30;;
20012;SDS011;10167;42.852;23.042;2022-11-20T13:05:18;0.20;;;0.20;;
20012;SDS011;10167;42.852;23.042;2022-11-20T13:07:52;1.65;;;0.82;;
20012;SDS011;10167;42.852;23.042;2022-11-20T13:10:25;0.57;;;0.57;;
20012;SDS011;10167;42.852;23.042;2022-11-20T13:13:01;1.27;;;1.08;;
20012;SDS011;10167;42.852;23.042;2022-11-20T13:15:41;3.53;;;1.70;;
20012;SDS011;10167;42.852;23.042;2022-11-20T13:18:17;1.60;;;1.50;;
20012;SDS011;10167;42.852;23.042;2022-11-20T13:20:49;2.38;;;1.13;;
20012;SDS011;10167;42.852;23.042;2022-11-20T13:23:25;5.15;;;1.00;;
20012;SDS011;10167;42.852;23.042;2022-11-20T13:26:05;0.43;;;0.43;;
20012;SDS011;10167;42.852;23.042;2022-11-20T13:28:44;0.30;;;0.30;;
20012;SDS011;10167;42.852;23.042;2022-11-20T13:31:26;1.00;;;0.90;;
20012;SDS011;10167;42.852;23.042;2022-11-20T13:34:02;2.42;;;1.75;;
20012;SDS011;10167;42.852;23.042;2022-11-20T13:36:36;1.17;;;1.08;;
20012;SDS011;10167;42.852;23.042;2022-11-20T13:42:03;1.00;;;0.50;;
20012;SDS011;10167;42.852;23.042;2022-11-20T13:44:51;1.65;;;1.23;;
20012;SDS011;10167;42.852;23.042;2022-11-20T13:49:53;2.65;;;1.25;;
20012;SDS011;10167;42.852;23.042;2022-11-20T13:52:30;0.95;;;0.73;;
20012;SDS011;10167;42.852;23.042;2022-11-20T13:55:12;1.27;;;1.02;;
20012;SDS011;10167;42.852;23.042;2022-11-20T13:57:51;0.68;;;0.68;;
20012;SDS011;10167;42.852;23.042;2022-11-20T14:00:29;1.83;;;1.25;;
20012;SDS011;10167;42.852;23.042;2022-11-20T14:03:00;1.63;;;1.00;;
20012;SDS011;10167;42.852;23.042;2022-11-20T14:05:40;2.03;;;1.85;;
20012;SDS011;10167;42.852;23.042;2022-11-20T14:08:20;14.60;;;6.97;;
20012;SDS011;10167;42.852;23.042;2022-11-20T14:11:02;15.10;;;9.80;;
20012;SDS011;10167;42.852;23.042;2022-11-20T14:13:50;7.55;;;4.22;;
20012;SDS011;10167;42.852;23.042;2022-11-20T14:16:21;10.57;;;4.80;;
20012;SDS011;10167;42.852;23.042;2022-11-20T14:18:50;12.35;;;5.07;;
20012;SDS011;10167;42.852;23.042;2022-11-20T14:21:23;3.58;;;2.75;;
20012;SDS011;10167;42.852;23.042;2022-11-20T14:24:02;5.07;;;2.95;;
20012;SDS011;10167;42.852;23.042;2022-11-20T14:26:32;4.45;;;4.00;;
20012;SDS011;10167;42.852;23.042;2022-11-20T14:29:02;2.88;;;2.45;;
20012;SDS011;10167;42.852;23.042;2022-11-20T14:31:32;7.43;;;4.53;;
20012;SDS011;10167;42.852;23.042;2022-11-20T14:34:02;4.32;;;2.50;;
20012;SDS011;10167;42.852;23.042;2022-11-20T14:36:32;1.58;;;1.48;;
20012;SDS011;10167;42.852;23.042;2022-11-20T14:39:03;2.17;;;1.58;;
20012;SDS011;10167;42.852;23.042;2022-11-20T14:41:32;6.82;;;3.95;;
20012;SDS011;10167;42.852;23.042;2022-11-20T14:44:01;14.10;;;5.20;;
20012;SDS011;10167;42.852;23.042;2022-11-20T14:46:31;11.20;;;6.18;;
20012;SDS011;10167;42.852;23.042;2022-11-20T14:49:01;14.50;;;5.82;;
20012;SDS011;10167;42.852;23.042;2022-11-20T14:51:32;3.90;;;2.97;;
20012;SDS011;10167;42.852;23.042;2022-11-20T14:54:10;1.42;;;1.33;;
20012;SDS011;10167;42.852;23.042;2022-11-20T14:56:42;2.33;;;2.13;;
20012;SDS011;10167;42.852;23.042;2022-11-20T14:59:23;1.95;;;1.73;;
20012;SDS011;10167;42.852;23.042;2022-11-20T15:01:56;3.10;;;1.55;;
20012;SDS011;10167;42.852;23.042;2022-11-20T15:04:27;4.30;;;1.23;;
20012;SDS011;10167;42.852;23.042;2022-11-20T15:07:00;1.15;;;1.05;;
20012;SDS011;10167;42.852;23.042;2022-11-20T15:09:31;1.58;;;1.38;;
20012;SDS011;10167;42.852;23.042;2022-11-20T15:12:04;7.93;;;4.38;;
20012;SDS011;10167;42.852;23.042;2022-11-20T15:14:34;4.40;;;2.67;;
20012;SDS011;10167;42.852;23.042;2022-11-20T15:17:07;4.38;;;2.05;;
20012;SDS011;10167;42.852;23.042;2022-11-20T15:19:40;5.47;;;1.55;;
20012;SDS011;10167;42.852;23.042;2022-11-20T15:22:13;1.83;;;1.65;;
20012;SDS011;10167;42.852;23.042;2022-11-20T15:24:44;2.08;;;1.92;;